East Montpelier, Vermont
Current Conditions -  °F | °C
As of 2:51 PM on Thursday 30 Oct 2014 (Local Time) from KMPV Reporting Station
Overcast Overcast  
Wind Chill: 41°   Ceiling: 4200
Heat Index: 45°   Visibility: 10mi
Dew Point: 32°   Wind: 8mph
Humidity: 60%   Direction: 320°NW
Pressure: 29.97"   Gusts: NA
Location:  44.27°N, 72.49°W
Report Text: KMPV 301851Z AUTO 32007KT 10SM OVC042 07/00 A2997 RMK AO2 SLP156 T00720000
Loading
Personal Weather Stations






























Interactive Weather Map
Tropical Storm Tracking
New forecast layout! Learn more

10-Day Weather Forecast

Advertisements
Track Severe Weather on mobile